createdAt,value
2018-10-04T00:00:08.940Z,39.3
2018-10-04T00:00:58.192Z,39.3
2018-10-04T00:01:48.756Z,39.3
2018-10-04T00:02:38.796Z,39.3
2018-10-04T00:03:29.230Z,39.3
2018-10-04T00:04:18.963Z,39.3
2018-10-04T00:05:09.355Z,39.3
2018-10-04T00:05:58.521Z,39.3
2018-10-04T00:06:48.595Z,39.3
2018-10-04T00:25:11.537Z,39.1
2018-10-04T00:25:59.769Z,39.1
2018-10-04T00:26:50.129Z,39.1
2018-10-04T00:27:40.090Z,39.1
2018-10-04T00:28:29.914Z,39.1
2018-10-04T00:29:20.804Z,39.1
2018-10-04T00:30:10.562Z,39.1
2018-10-04T00:31:01.141Z,39.1
2018-10-04T00:31:51.266Z,39.1
2018-10-04T00:32:40.714Z,39.1
2018-10-04T00:33:30.514Z,39.1
2018-10-04T00:34:21.124Z,39.1
2018-10-04T00:35:10.713Z,39.1
2018-10-04T00:36:00.371Z,39.1
2018-10-04T00:36:51.596Z,39.1
2018-10-04T00:37:41.633Z,39
2018-10-04T00:38:31.168Z,39
2018-10-04T00:39:21.769Z,39.1
2018-10-04T00:40:11.267Z,39
2018-10-04T00:41:01.324Z,39
2018-10-04T00:41:51.408Z,39
2018-10-04T00:42:41.749Z,39
2018-10-04T00:43:31.786Z,39
2018-10-04T00:44:21.244Z,39
2018-10-04T00:45:11.953Z,39
2018-10-04T00:46:03.691Z,39
2018-10-04T00:46:51.784Z,39
2018-10-04T00:47:41.097Z,39
2018-10-04T00:48:32.163Z,39
2018-10-04T00:49:21.939Z,38.9
2018-10-04T00:50:12.555Z,38.9
2018-10-04T00:51:01.788Z,38.9
2018-10-04T00:51:52.198Z,38.9
2018-10-04T00:52:42.181Z,38.9
2018-10-04T00:53:32.821Z,38.9
2018-10-04T00:54:22.578Z,38.9
2018-10-04T00:55:13.215Z,38.9
2018-10-04T00:56:02.457Z,38.9
2018-10-04T00:56:52.765Z,38.9
2018-10-04T00:57:42.625Z,38.9
2018-10-04T00:58:32.607Z,38.9
2018-10-04T00:59:22.138Z,38.9
2018-10-04T01:00:13.578Z,38.9
2018-10-04T01:01:03.085Z,38.9
2018-10-04T01:01:52.889Z,38.9
2018-10-04T01:02:42.922Z,38.9
2018-10-04T01:03:32.990Z,38.9
2018-10-04T01:04:23.060Z,38.9
2018-10-04T01:05:14.013Z,38.9
2018-10-04T01:06:03.727Z,38.9
2018-10-04T01:06:53.500Z,38.9
2018-10-04T01:07:43.831Z,38.8
2018-10-04T01:08:33.622Z,38.8
2018-10-04T01:09:23.993Z,38.8
2018-10-04T01:10:14.102Z,38.8
2018-10-04T01:11:04.088Z,38.8
2018-10-04T01:11:52.692Z,38.8
2018-10-04T01:12:44.757Z,38.8
2018-10-04T01:13:34.027Z,38.8
2018-10-04T01:14:24.093Z,38.8
2018-10-04T01:15:13.291Z,38.8
2018-10-04T01:16:04.767Z,38.8
2018-10-04T01:16:54.240Z,38.8
2018-10-04T01:17:44.045Z,38.8
2018-10-04T01:18:34.354Z,38.8
2018-10-04T01:19:24.457Z,38.8
2018-10-04T01:20:14.804Z,38.8
2018-10-04T01:21:04.896Z,38.8
2018-10-04T01:21:54.344Z,38.8
2018-10-04T01:22:45.306Z,38.8
2018-10-04T01:23:34.189Z,38.7
2018-10-04T01:24:24.518Z,38.8
2018-10-04T01:25:14.599Z,38.7
2018-10-04T01:26:04.119Z,38.7
2018-10-04T01:26:55.316Z,38.8
2018-10-04T01:27:45.339Z,38.7
2018-10-04T01:28:35.109Z,38.7
2018-10-04T01:29:25.216Z,38.7
2018-10-04T01:30:15.811Z,38.7
2018-10-04T01:31:04.451Z,38.7
2018-10-04T01:31:55.862Z,38.7
2018-10-04T01:32:45.439Z,38.7
2018-10-04T01:33:35.183Z,38.6
2018-10-04T01:34:25.560Z,38.7
2018-10-04T01:35:15.128Z,38.7
2018-10-04T01:36:05.387Z,38.6
2018-10-04T01:36:55.748Z,38.6
2018-10-04T01:37:45.775Z,38.6
2018-10-04T01:38:35.266Z,38.6
2018-10-04T01:39:25.655Z,38.6
2018-10-04T01:40:15.690Z,38.6
2018-10-04T01:41:06.345Z,38.6
2018-10-04T01:41:56.325Z,38.6
2018-10-04T01:42:45.605Z,38.6
2018-10-04T01:43:36.518Z,38.6
2018-10-04T01:44:26.771Z,38.6
2018-10-04T01:45:16.360Z,38.6
2018-10-04T01:46:06.710Z,38.6
2018-10-04T01:46:56.152Z,38.6
2018-10-04T01:47:46.202Z,38.6
2018-10-04T01:48:36.558Z,38.6
2018-10-04T01:49:26.090Z,38.6
2018-10-04T01:50:16.402Z,38.6
2018-10-04T01:51:06.610Z,38.5
2018-10-04T01:51:56.858Z,38.6
2018-10-04T01:52:46.887Z,38.6
2018-10-04T01:53:37.246Z,38.5
2018-10-04T01:54:27.332Z,38.5
2018-10-04T01:55:17.359Z,38.5
2018-10-04T01:56:06.642Z,38.5
2018-10-04T01:56:57.795Z,38.5
2018-10-04T01:57:46.984Z,38.5
2018-10-04T01:58:37.847Z,38.5
2018-10-04T01:59:27.096Z,38.5
2018-10-04T02:00:17.161Z,38.5
2018-10-04T02:01:07.244Z,38.5
2018-10-04T02:01:57.233Z,38.4
2018-10-04T02:02:47.618Z,38.4
2018-10-04T02:03:37.979Z,38.4
2018-10-04T02:04:28.322Z,38.4
2018-10-04T02:05:17.803Z,38.4
2018-10-04T02:06:07.886Z,38.4
2018-10-04T02:06:57.356Z,38.4
2018-10-04T02:07:47.734Z,38.4
2018-10-04T02:08:38.071Z,38.4
2018-10-04T02:09:27.842Z,38.4
2018-10-04T02:10:18.439Z,38.4
2018-10-04T02:11:07.939Z,38.4
2018-10-04T02:11:58.306Z,38.4
2018-10-04T02:12:47.856Z,38.4
2018-10-04T02:13:38.409Z,38.4
2018-10-04T02:14:29.081Z,38.4
2018-10-04T02:15:18.520Z,38.4
2018-10-04T02:16:08.063Z,38.4
2018-10-04T02:16:59.231Z,38.4
2018-10-04T02:17:48.700Z,38.4
2018-10-04T02:18:38.011Z,38.4
2018-10-04T02:19:28.367Z,38.4
2018-10-04T02:20:19.045Z,38.4
2018-10-04T02:21:08.201Z,38.4
2018-10-04T02:21:59.276Z,38.3
2018-10-04T02:22:48.328Z,38.3
2018-10-04T02:23:38.883Z,38.3
2018-10-04T02:24:29.385Z,38.3
2018-10-04T02:25:18.816Z,38.3
2018-10-04T02:26:09.128Z,38.3
2018-10-04T02:26:58.890Z,38.3
2018-10-04T02:27:48.636Z,38.3
2018-10-04T02:28:38.821Z,38.3
2018-10-04T02:29:28.833Z,38.3
2018-10-04T02:30:19.475Z,38.3
2018-10-04T02:31:09.560Z,38.3
2018-10-04T02:31:59.025Z,38.3
2018-10-04T02:32:49.396Z,38.3
2018-10-04T02:33:39.668Z,38.3
2018-10-04T02:34:29.490Z,38.3
2018-10-04T02:35:19.478Z,38.3
2018-10-04T02:36:09.595Z,38.3
2018-10-04T02:36:59.092Z,38.3
2018-10-04T02:37:50.072Z,38.3
2018-10-04T02:38:39.505Z,38.3
2018-10-04T02:39:30.362Z,38.2
2018-10-04T02:40:19.902Z,38.2
2018-10-04T02:41:10.259Z,38.2
2018-10-04T02:42:00.519Z,38.2
2018-10-04T02:42:50.265Z,38.2
2018-10-04T02:43:40.179Z,38.2
2018-10-04T02:44:30.167Z,38.2
2018-10-04T02:45:21.055Z,38.2
2018-10-04T02:46:10.541Z,38.1
2018-10-04T02:47:00.587Z,38.2
2018-10-04T02:47:50.620Z,38.2
2018-10-04T02:48:41.044Z,38.1
2018-10-04T02:49:30.789Z,38.2
2018-10-04T02:50:21.149Z,38.1
2018-10-04T02:51:10.328Z,38.1
2018-10-04T02:52:01.268Z,38.1
2018-10-04T02:52:51.012Z,38.1
2018-10-04T02:53:41.690Z,38.1
2018-10-04T02:54:31.159Z,38.1
2018-10-04T02:55:21.514Z,38.1
2018-10-04T02:56:11.534Z,38.1
2018-10-04T02:57:01.669Z,38.1
2018-10-04T02:57:51.962Z,38.1
2018-10-04T02:58:41.619Z,38.1
2018-10-04T02:59:31.833Z,38.1
2018-10-04T03:00:22.439Z,38.1
2018-10-04T03:01:12.226Z,38.1
2018-10-04T03:02:02.280Z,38.1
2018-10-04T03:02:51.816Z,38.1
2018-10-04T03:03:41.784Z,38.1
2018-10-04T03:04:30.995Z,38.1
2018-10-04T03:05:22.575Z,38.1
2018-10-04T03:06:12.088Z,38.1
2018-10-04T03:07:02.116Z,38
2018-10-04T03:07:52.516Z,38
2018-10-04T03:08:42.605Z,38
2018-10-04T03:09:32.478Z,38
2018-10-04T03:10:22.911Z,38
2018-10-04T03:11:12.951Z,38
2018-10-04T03:12:02.405Z,38
2018-10-04T03:12:52.805Z,37.9
2018-10-04T03:13:42.808Z,37.9
2018-10-04T03:14:32.722Z,37.9
2018-10-04T03:15:23.260Z,37.9
2018-10-04T03:16:13.055Z,37.9
2018-10-04T03:17:02.795Z,37.9
2018-10-04T03:17:53.174Z,37.9
2018-10-04T03:18:42.904Z,37.9
2018-10-04T03:19:33.842Z,37.9
2018-10-04T03:20:23.704Z,37.9
2018-10-04T03:21:13.211Z,37.9
2018-10-04T03:22:03.528Z,37.9
2018-10-04T03:22:53.272Z,37.9
2018-10-04T03:23:43.320Z,37.9
2018-10-04T03:24:33.939Z,37.8
2018-10-04T03:25:23.444Z,37.9
2018-10-04T03:26:13.784Z,37.9
2018-10-04T03:27:04.234Z,38
2018-10-04T03:27:53.858Z,38.1
2018-10-04T03:28:43.662Z,38.1
2018-10-04T03:29:33.753Z,38.1
2018-10-04T03:30:25.599Z,38.1
2018-10-04T03:31:13.699Z,38.1
2018-10-04T03:32:03.970Z,38.2
2018-10-04T03:32:54.286Z,38.2
2018-10-04T03:33:44.413Z,38.2
2018-10-04T03:34:34.723Z,38.3
2018-10-04T03:35:25.331Z,38.3
2018-10-04T03:36:14.776Z,38.3
2018-10-04T03:37:04.273Z,38.3
2018-10-04T03:37:54.931Z,38.3
2018-10-04T03:38:44.680Z,38.3
2018-10-04T03:39:34.151Z,38.3
2018-10-04T03:40:24.556Z,38.3
2018-10-04T03:41:14.880Z,38.3
2018-10-04T03:42:04.664Z,38.3
2018-10-04T03:42:55.215Z,38.3
2018-10-04T03:43:44.485Z,38.3
2018-10-04T03:44:35.125Z,38.4
2018-10-04T03:45:25.430Z,38.4
2018-10-04T03:46:15.053Z,38.4
2018-10-04T03:47:04.455Z,38.3
2018-10-04T03:47:55.375Z,38.4
2018-10-04T03:48:45.255Z,38.4
2018-10-04T03:49:35.488Z,38.4
2018-10-04T03:50:24.503Z,38.4
2018-10-04T03:51:15.715Z,38.4
2018-10-04T03:52:04.869Z,38.4
2018-10-04T03:52:55.560Z,38.4
2018-10-04T03:53:45.648Z,38.4
2018-10-04T03:54:35.403Z,38.4
2018-10-04T03:55:25.427Z,38.4
2018-10-04T03:56:15.427Z,38.4
2018-10-04T03:57:05.547Z,38.4
2018-10-04T03:57:55.605Z,38.4
2018-10-04T03:58:46.024Z,38.4
2018-10-04T03:59:35.441Z,38.4
2018-10-04T04:00:25.478Z,38.4
2018-10-04T04:01:16.142Z,38.4
2018-10-04T04:02:06.449Z,38.4
2018-10-04T04:02:55.377Z,38.4
2018-10-04T04:03:45.288Z,38.4
2018-10-04T04:04:36.124Z,38.4
2018-10-04T04:05:26.499Z,38.4
2018-10-04T04:06:16.497Z,38.4
2018-10-04T04:07:05.950Z,38.4
2018-10-04T04:07:56.541Z,38.4
2018-10-04T04:08:46.727Z,38.4
2018-10-04T04:09:36.507Z,38.4
2018-10-04T04:10:27.071Z,38.4
2018-10-04T04:11:15.988Z,38.4
2018-10-04T04:12:07.799Z,38.4
2018-10-04T04:12:57.209Z,38.4
2018-10-04T04:13:47.007Z,38.4
2018-10-04T04:14:36.493Z,38.4
2018-10-04T04:15:26.506Z,38.4
2018-10-04T04:16:16.876Z,38.3
2018-10-04T04:17:07.535Z,38.3
2018-10-04T04:17:56.988Z,38.3
2018-10-04T04:18:47.363Z,38.3
2018-10-04T04:19:38.013Z,38.4
2018-10-04T04:20:27.498Z,38.3
2018-10-04T04:21:17.253Z,38.4
2018-10-04T04:22:08.632Z,38.3
2018-10-04T04:22:58.283Z,38.3
2018-10-04T04:23:48.055Z,38.3
2018-10-04T04:24:38.032Z,38.3
2018-10-04T04:25:28.161Z,38.3
2018-10-04T04:26:18.238Z,38.3
2018-10-04T04:27:08.071Z,38.3
2018-10-04T04:27:57.980Z,38.3
2018-10-04T04:28:48.095Z,38.3
2018-10-04T04:29:38.460Z,38.3
2018-10-04T04:30:27.934Z,38.3
2018-10-04T04:31:18.015Z,38.3
2018-10-04T04:32:09.508Z,38.3
2018-10-04T04:32:58.413Z,38.3
2018-10-04T04:33:47.648Z,38.3
2018-10-04T04:34:39.090Z,38.3
2018-10-04T04:35:28.051Z,38.3
2018-10-04T04:36:18.902Z,38.3
2018-10-04T04:54:26.011Z,38.2
2018-10-04T04:55:14.628Z,38.3
2018-10-04T04:56:04.969Z,38.2
2018-10-04T04:56:55.041Z,38.2
2018-10-04T04:57:44.808Z,38.2
2018-10-04T04:58:34.873Z,38.2
2018-10-04T04:59:25.418Z,38.2
2018-10-04T05:00:14.985Z,38.2
2018-10-04T05:01:05.630Z,38.2
2018-10-04T05:01:55.682Z,38.2
2018-10-04T05:02:46.061Z,38.2
2018-10-04T05:03:35.243Z,38.2
2018-10-04T05:04:26.425Z,38.2
2018-10-04T05:05:15.323Z,38.2
2018-10-04T05:06:07.359Z,38.2
2018-10-04T05:06:56.381Z,38.2
2018-10-04T05:07:44.978Z,38.1
2018-10-04T05:08:36.237Z,38.2
2018-10-04T05:09:26.025Z,38.1
2018-10-04T05:10:16.323Z,38.1
2018-10-04T05:11:06.597Z,38.1
2018-10-04T05:11:56.697Z,38.1
2018-10-04T05:12:46.175Z,38.1
2018-10-04T05:13:36.253Z,38.2
2018-10-04T05:14:26.635Z,38.1
2018-10-04T05:15:16.379Z,38.1
2018-10-04T05:16:06.907Z,38.1
2018-10-04T05:16:56.794Z,38.1
2018-10-04T05:17:45.400Z,38.1
2018-10-04T05:18:37.176Z,38.1
2018-10-04T05:19:26.938Z,38.1
2018-10-04T05:20:17.019Z,38.1
2018-10-04T05:21:07.393Z,38.1
2018-10-04T05:21:56.611Z,38.1
2018-10-04T05:22:47.273Z,38.1
2018-10-04T05:23:37.541Z,38.1
2018-10-04T05:24:27.334Z,38.1
2018-10-04T05:25:17.653Z,38.1
2018-10-04T05:26:07.208Z,38.1
2018-10-04T05:26:57.555Z,38.1
2018-10-04T05:27:48.904Z,38.1
2018-10-04T05:28:37.637Z,38.1
2018-10-04T05:29:28.277Z,38.1
2018-10-04T05:30:17.506Z,38.1
2018-10-04T05:31:06.718Z,38.1
2018-10-04T05:31:58.182Z,38.1
2018-10-04T05:32:47.675Z,38.1
2018-10-04T05:33:38.290Z,38.1
2018-10-04T05:34:28.043Z,38
2018-10-04T05:35:17.842Z,38.1
2018-10-04T05:36:07.941Z,38.1
2018-10-04T05:36:59.748Z,38.1
2018-10-04T05:37:48.294Z,38
2018-10-04T05:38:38.088Z,38.1
2018-10-04T05:39:28.467Z,38
2018-10-04T05:40:18.469Z,38
2018-10-04T05:41:08.859Z,38
2018-10-04T05:41:58.025Z,38
2018-10-04T05:42:48.687Z,38
2018-10-04T05:43:38.453Z,38
2018-10-04T05:44:28.499Z,38
2018-10-04T05:45:19.868Z,38
2018-10-04T05:46:08.350Z,38
2018-10-04T05:46:59.011Z,38
2018-10-04T05:47:49.309Z,38
2018-10-04T05:48:38.816Z,38
2018-10-04T05:49:28.959Z,37.9
2018-10-04T05:50:19.499Z,38
2018-10-04T05:51:09.606Z,38
2018-10-04T05:51:59.392Z,38
2018-10-04T05:52:50.268Z,37.9
2018-10-04T05:53:39.547Z,38
2018-10-04T05:54:29.282Z,37.9
2018-10-04T05:55:19.579Z,37.9
2018-10-04T05:56:09.688Z,38
2018-10-04T05:56:59.734Z,37.9
2018-10-04T05:57:49.306Z,37.9
2018-10-04T05:58:39.836Z,37.9
2018-10-04T05:59:30.111Z,37.9
2018-10-04T06:00:19.982Z,37.9
2018-10-04T06:01:09.715Z,37.9
2018-10-04T06:02:00.377Z,37.9
2018-10-04T06:02:50.247Z,37.9
2018-10-04T06:03:40.500Z,37.9
2018-10-04T06:04:30.572Z,37.9
2018-10-04T06:05:21.112Z,37.9
2018-10-04T06:06:10.980Z,37.9
2018-10-04T06:06:59.883Z,37.6
2018-10-04T06:07:50.192Z,27.1
2018-10-04T06:08:40.875Z,32.1
2018-10-04T06:09:30.395Z,39.1
2018-10-04T06:10:20.429Z,41.6
2018-10-04T06:11:10.562Z,42.1
2018-10-04T06:12:01.139Z,42.3
2018-10-04T06:12:51.197Z,42.1
2018-10-04T06:13:40.940Z,41.8
2018-10-04T06:14:30.179Z,41.6
2018-10-04T06:15:22.428Z,41.4
2018-10-04T06:16:11.120Z,41.2
2018-10-04T06:17:01.182Z,41.1
2018-10-04T06:17:51.006Z,41
2018-10-04T06:18:41.300Z,40.9
2018-10-04T06:19:31.362Z,40.8
2018-10-04T06:20:21.731Z,40.8
2018-10-04T06:21:11.490Z,40.8
2018-10-04T06:22:03.020Z,40.7
2018-10-04T06:22:51.336Z,40.6
2018-10-04T06:23:41.391Z,40.6
2018-10-04T06:24:31.766Z,40.6
2018-10-04T06:25:21.866Z,40.5
2018-10-04T06:26:11.867Z,40
2018-10-04T06:27:02.249Z,38.2
2018-10-04T06:27:51.734Z,44.8
2018-10-04T06:28:42.844Z,48
2018-10-04T06:29:31.951Z,47.6
2018-10-04T06:30:22.151Z,45.9
2018-10-04T06:31:12.523Z,45
2018-10-04T06:32:02.528Z,45.3
2018-10-04T06:32:52.411Z,46.1
2018-10-04T06:33:42.432Z,47.2
2018-10-04T06:34:31.983Z,48.1
2018-10-04T06:35:24.067Z,48.6
2018-10-04T06:36:12.591Z,48.8
2018-10-04T06:37:03.284Z,48.8
2018-10-04T06:37:52.450Z,48.9
2018-10-04T06:38:42.520Z,49.1
2018-10-04T06:39:32.905Z,49.3
2018-10-04T06:40:22.744Z,49.6
2018-10-04T06:41:12.997Z,49.9
2018-10-04T06:42:03.364Z,50.1
2018-10-04T06:42:53.043Z,50.3
2018-10-04T06:43:42.376Z,50.4
2018-10-04T06:44:33.520Z,50.6
2018-10-04T06:45:22.998Z,50.8
2018-10-04T06:46:13.367Z,50.9
2018-10-04T06:47:02.873Z,51.1
2018-10-04T06:47:53.195Z,51.3
2018-10-04T06:48:43.260Z,51.5
2018-10-04T06:49:33.307Z,51.7
2018-10-04T06:50:24.389Z,51.8
2018-10-04T06:51:13.172Z,52
2018-10-04T06:52:03.520Z,52.1
2018-10-04T06:52:54.097Z,52.3
2018-10-04T06:53:43.630Z,52.4
2018-10-04T06:54:33.695Z,52.6
2018-10-04T06:55:23.762Z,52.8
2018-10-04T06:56:13.955Z,52.9
2018-10-04T06:57:04.720Z,53.1
2018-10-04T06:57:54.957Z,53.3
2018-10-04T06:58:44.074Z,53.4
2018-10-04T06:59:34.346Z,53.5
2018-10-04T07:00:24.652Z,53.7
2018-10-04T07:01:14.206Z,53.8
2018-10-04T07:02:04.100Z,53.9
2018-10-04T07:02:54.910Z,54.1
2018-10-04T07:03:45.360Z,54.2
2018-10-04T07:04:34.120Z,54.4
2018-10-04T07:05:24.774Z,54.5
2018-10-04T07:06:15.144Z,54.6
2018-10-04T07:07:04.149Z,54.8
2018-10-04T07:07:55.822Z,54.9
2018-10-04T07:08:44.736Z,55.1
2018-10-04T07:09:35.112Z,55.3
2018-10-04T07:10:25.152Z,55.4
2018-10-04T07:11:15.299Z,55.5
2018-10-04T07:12:05.271Z,55.6
2018-10-04T07:12:54.759Z,55.8
2018-10-04T07:13:45.111Z,55.9
2018-10-04T07:14:34.978Z,56.1
2018-10-04T07:15:25.230Z,56.2
2018-10-04T07:16:14.996Z,56.4
2018-10-04T07:17:04.876Z,56.6
2018-10-04T07:17:54.965Z,56.7
2018-10-04T07:18:45.218Z,56.8
2018-10-04T07:19:35.234Z,57
2018-10-04T07:20:25.510Z,57.1
2018-10-04T07:21:16.238Z,57.3
2018-10-04T07:22:06.274Z,57.4
2018-10-04T07:22:56.341Z,57.6
2018-10-04T07:23:45.901Z,57.7
2018-10-04T07:24:36.200Z,57.8
2018-10-04T07:25:26.288Z,57.9
2018-10-04T07:26:15.470Z,58.1
2018-10-04T07:27:06.410Z,58.3
2018-10-04T07:27:56.741Z,58.4
2018-10-04T07:29:36.346Z,58.7
2018-10-04T07:30:26.088Z,58.8
2018-10-04T07:31:16.670Z,59
2018-10-04T07:32:06.770Z,59.1
2018-10-04T07:32:57.095Z,59.3
2018-10-04T07:33:47.175Z,59.4
2018-10-04T07:34:36.693Z,59.6
2018-10-04T07:35:26.716Z,59.8
2018-10-04T07:36:16.495Z,59.9
2018-10-04T07:37:07.803Z,60.1
2018-10-04T07:37:56.900Z,60.3
2018-10-04T07:38:46.088Z,60.4
2018-10-04T07:39:37.312Z,60.5
2018-10-04T07:40:27.397Z,60.6
2018-10-04T07:41:16.670Z,60.8
2018-10-04T07:42:09.288Z,60.9
2018-10-04T07:42:57.305Z,61.1
2018-10-04T07:43:47.372Z,61.2
2018-10-04T07:44:37.907Z,61.3
2018-10-04T07:45:26.927Z,61.4
2018-10-04T07:46:17.803Z,61.6
2018-10-04T07:47:07.118Z,61.8
2018-10-04T07:47:57.949Z,61.9
2018-10-04T07:48:48.866Z,62
2018-10-04T07:49:38.346Z,62.1
2018-10-04T07:50:28.065Z,62.3
2018-10-04T07:51:17.971Z,62.4
2018-10-04T07:52:08.262Z,62.5
2018-10-04T07:52:58.087Z,62.7
2018-10-04T07:53:48.621Z,62.8
2018-10-04T07:54:38.152Z,62.9
2018-10-04T07:55:27.815Z,63.1
2018-10-04T07:56:18.085Z,63.2
2018-10-04T07:57:07.572Z,63.3
2018-10-04T07:57:57.619Z,63.4
2018-10-04T07:58:47.801Z,63.6
2018-10-04T07:59:38.041Z,63.7
2018-10-04T08:00:28.949Z,63.9
2018-10-04T08:01:18.706Z,64
2018-10-04T08:02:09.011Z,64.1
2018-10-04T08:02:58.539Z,64.3
2018-10-04T08:03:48.550Z,64.3
2018-10-04T08:04:38.609Z,64.4
2018-10-04T08:05:29.214Z,64.6
2018-10-04T08:06:22.737Z,64.8
2018-10-04T08:07:08.828Z,64.9
2018-10-04T08:07:59.440Z,65.1
2018-10-04T08:08:49.312Z,65.2
2018-10-04T08:09:38.838Z,65.3
2018-10-04T08:10:29.378Z,65.4
2018-10-04T08:11:19.375Z,65.6
2018-10-04T08:12:09.466Z,65.7
2018-10-04T08:13:00.050Z,65.8
2018-10-04T08:13:49.636Z,65.9
2018-10-04T08:14:39.960Z,66.1
2018-10-04T08:15:29.956Z,66.1
2018-10-04T08:16:19.503Z,66.3
2018-10-04T08:17:09.575Z,66.3
2018-10-04T08:17:59.911Z,66.4
2018-10-04T08:18:49.745Z,66.4
2018-10-04T08:19:38.873Z,66.5
2018-10-04T08:20:30.113Z,66.6
2018-10-04T08:21:20.875Z,66.8
2018-10-04T08:22:10.789Z,66.8
2018-10-04T08:23:00.266Z,66.9
2018-10-04T08:23:49.911Z,66.9
2018-10-04T08:24:39.910Z,66.9
2018-10-04T08:25:30.210Z,67
2018-10-04T08:26:20.190Z,67.1
2018-10-04T08:27:10.594Z,67.1
2018-10-04T08:28:00.354Z,67.3
2018-10-04T08:28:51.214Z,67.3
2018-10-04T08:29:41.095Z,67.4
2018-10-04T08:30:30.590Z,67.6
2018-10-04T08:31:21.216Z,67.6
2018-10-04T08:32:10.422Z,67.7
2018-10-04T08:33:01.319Z,67.8
2018-10-04T08:33:51.364Z,67.8
2018-10-04T08:34:41.691Z,67.9
2018-10-04T08:35:31.744Z,68
2018-10-04T08:36:21.001Z,68.1
2018-10-04T08:37:11.656Z,68.1
2018-10-04T08:38:01.958Z,68.3
2018-10-04T08:38:51.744Z,68.3
2018-10-04T08:39:42.709Z,68.4
2018-10-04T08:40:31.364Z,68.5
2018-10-04T08:41:20.712Z,68.6
2018-10-04T08:42:12.794Z,68.6
2018-10-04T08:43:02.306Z,68.8
2018-10-04T08:43:51.251Z,68.8
2018-10-04T08:44:42.211Z,68.9
2018-10-04T08:45:32.186Z,69.1
2018-10-04T08:46:22.839Z,69.2
2018-10-04T08:47:11.751Z,69.3
2018-10-04T08:48:02.259Z,69.4
2018-10-04T08:48:52.458Z,69.5
2018-10-04T08:49:41.686Z,69.6
2018-10-04T08:50:32.023Z,69.6
2018-10-04T08:51:21.748Z,69.7
2018-10-04T08:52:13.036Z,69.7
2018-10-04T09:08:40.252Z,71.1
2018-10-04T09:09:30.852Z,71.3
2018-10-04T09:10:20.957Z,71.3
2018-10-04T09:11:10.749Z,71.4
2018-10-04T09:12:00.505Z,71.5
2018-10-04T09:12:49.688Z,71.6
2018-10-04T09:13:40.347Z,71.6
2018-10-04T09:14:30.134Z,71.7
2018-10-04T09:15:20.728Z,71.7
2018-10-04T09:16:10.242Z,71.7
2018-10-04T09:17:00.921Z,71.8
2018-10-04T09:17:50.914Z,71.8
2018-10-04T09:18:40.695Z,71.9
2018-10-04T09:19:31.064Z,71.9
2018-10-04T09:20:20.774Z,72
2018-10-04T09:21:11.171Z,72.1
2018-10-04T09:22:01.329Z,72.2
2018-10-04T09:22:51.542Z,72.3
2018-10-04T09:23:40.759Z,72.4
2018-10-04T09:24:31.684Z,72.5
2018-10-04T09:25:20.890Z,72.6
2018-10-04T09:26:11.480Z,72.6
2018-10-04T09:27:02.208Z,72.6
2018-10-04T09:27:51.649Z,72.6
2018-10-04T09:28:41.444Z,72.7
2018-10-04T09:29:31.206Z,72.8
2018-10-04T09:30:22.106Z,72.9
2018-10-04T09:31:11.866Z,73
2018-10-04T09:32:02.564Z,73.1
2018-10-04T09:32:51.996Z,73.1
2018-10-04T09:33:42.094Z,73.2
2018-10-04T09:34:32.228Z,73.3
2018-10-04T09:35:22.483Z,73.3
2018-10-04T09:36:12.859Z,73.4
2018-10-04T09:37:02.338Z,73.4
2018-10-04T09:37:52.691Z,73.5
2018-10-04T09:38:42.742Z,73.6
2018-10-04T09:39:32.886Z,73.7
2018-10-04T09:40:22.343Z,73.8
2018-10-04T09:41:13.247Z,73.8
2018-10-04T09:42:03.308Z,73.8
2018-10-04T09:42:52.095Z,73.9
2018-10-04T09:43:42.868Z,73.9
2018-10-04T09:44:32.887Z,74
2018-10-04T09:45:23.254Z,74.1
2018-10-04T09:46:13.617Z,74.2
2018-10-04T09:47:02.815Z,74.3
2018-10-04T09:47:53.152Z,74.4
2018-10-04T09:48:44.230Z,74.5
2018-10-04T09:49:34.063Z,74.6
2018-10-04T09:50:23.356Z,74.6
2018-10-04T09:51:13.632Z,74.7
2018-10-04T09:52:04.095Z,74.7
2018-10-04T09:52:53.257Z,74.7
2018-10-04T09:53:44.015Z,74.6
2018-10-04T09:54:33.659Z,74.6
2018-10-04T09:55:23.470Z,74.6
2018-10-04T09:56:13.742Z,74.7
2018-10-04T09:57:03.559Z,74.8
2018-10-04T09:57:53.351Z,74.9
2018-10-04T09:58:43.662Z,74.9
2018-10-04T09:59:34.420Z,75
2018-10-04T10:00:23.219Z,75.1
2018-10-04T10:01:14.416Z,75.3
2018-10-04T10:02:04.266Z,75.3
2018-10-04T10:02:53.971Z,75.4
2018-10-04T10:03:44.601Z,75.4
2018-10-04T10:04:33.536Z,75.5
2018-10-04T10:05:25.368Z,75.5
2018-10-04T10:06:14.460Z,75.5
2018-10-04T10:07:04.867Z,75.6
2018-10-04T10:07:54.685Z,75.6
2018-10-04T10:08:44.920Z,75.6
2018-10-04T10:09:33.878Z,75.6
2018-10-04T10:10:24.570Z,75.6
2018-10-04T10:11:14.565Z,75.6
2018-10-04T10:12:04.962Z,75.6
2018-10-04T10:12:55.018Z,75.6
2018-10-04T10:13:45.066Z,75.6
2018-10-04T10:14:35.134Z,75.7
2018-10-04T10:15:24.921Z,75.8
2018-10-04T10:16:15.533Z,75.8
2018-10-04T10:17:05.313Z,75.9
2018-10-04T10:17:55.105Z,75.9
2018-10-04T10:18:45.485Z,76.1
2018-10-04T10:19:35.505Z,76.1
2018-10-04T10:20:25.118Z,76.2
2018-10-04T10:21:15.695Z,76.2
2018-10-04T10:22:05.984Z,76.3
2018-10-04T10:22:55.685Z,76.3
2018-10-04T10:23:46.092Z,76.3
2018-10-04T10:24:36.465Z,76.2
2018-10-04T10:25:25.624Z,76.3
2018-10-04T10:26:14.838Z,76.3
2018-10-04T10:27:06.381Z,76.3
2018-10-04T10:27:56.144Z,76.3
2018-10-04T10:28:45.877Z,76.4
2018-10-04T10:29:36.517Z,76.4
2018-10-04T10:30:26.317Z,76.4
2018-10-04T10:31:16.349Z,76.5
2018-10-04T10:32:06.671Z,76.6
2018-10-04T10:32:56.778Z,76.6
2018-10-04T10:33:45.977Z,76.7
2018-10-04T10:34:38.049Z,76.8
2018-10-04T10:35:26.937Z,76.8
2018-10-04T10:36:17.079Z,76.9
2018-10-04T10:37:07.349Z,76.9
2018-10-04T10:37:57.127Z,76.9
2018-10-04T10:38:47.196Z,76.9
2018-10-04T10:39:36.113Z,76.9
2018-10-04T10:40:29.884Z,77
2018-10-04T10:41:17.126Z,77
2018-10-04T10:42:07.444Z,77
2018-10-04T10:42:56.661Z,77.1
2018-10-04T10:43:46.989Z,77.1
2018-10-04T10:44:37.631Z,77.2
2018-10-04T10:45:27.716Z,77.3
2018-10-04T10:46:17.803Z,77.3
2018-10-04T10:47:07.224Z,77.4
2018-10-04T10:47:57.281Z,77.5
2018-10-04T10:48:47.661Z,77.6
2018-10-04T10:49:37.786Z,77.5
2018-10-04T10:50:27.506Z,77.5
2018-10-04T10:51:18.130Z,77.4
2018-10-04T10:52:07.609Z,77.4
2018-10-04T10:52:58.258Z,77.4
2018-10-04T10:53:48.284Z,77.4
2018-10-04T10:54:37.850Z,77.4
2018-10-04T10:55:27.950Z,77.4
2018-10-04T10:56:18.250Z,77.4
2018-10-04T10:57:08.251Z,77.4
2018-10-04T10:57:58.923Z,76.7
2018-10-04T10:58:50.365Z,75.8
2018-10-04T10:59:38.176Z,74.8
2018-10-04T11:00:28.638Z,74
2018-10-04T11:01:20.151Z,74.9
2018-10-04T11:02:09.259Z,78.8
2018-10-04T11:02:59.033Z,80.7
2018-10-04T11:03:48.812Z,80.5
2018-10-04T11:04:38.827Z,79.2
2018-10-04T11:05:28.920Z,77.8
2018-10-04T11:06:18.695Z,77.1
2018-10-04T11:07:09.290Z,77
2018-10-04T11:07:58.778Z,77.3
2018-10-04T11:08:49.130Z,77.5
2018-10-04T11:09:38.658Z,77.7
2018-10-04T11:10:29.584Z,77.7
2018-10-04T11:11:20.470Z,77.6
2018-10-04T11:12:09.399Z,77.4
2018-10-04T11:12:59.694Z,77.4
2018-10-04T11:13:51.632Z,77.4
2018-10-04T11:14:39.595Z,77.5
2018-10-04T11:15:29.348Z,77.5
2018-10-04T11:16:19.687Z,77.6
2018-10-04T11:17:11.499Z,77.6
2018-10-04T11:18:01.262Z,77.6
2018-10-04T11:18:50.161Z,77.6
2018-10-04T11:19:40.529Z,77.6
2018-10-04T11:20:30.269Z,77.6
2018-10-04T11:21:20.642Z,77.7
2018-10-04T11:22:10.372Z,77.7
2018-10-04T11:23:00.509Z,77.8
2018-10-04T11:23:50.526Z,77.8
2018-10-04T11:24:40.913Z,77.9
2018-10-04T11:25:30.359Z,77.9
2018-10-04T11:26:20.138Z,77.9
2018-10-04T11:27:10.841Z,77.9
2018-10-04T11:28:00.284Z,77.9
2018-10-04T11:28:50.615Z,77.9
2018-10-04T11:29:40.722Z,77.9
2018-10-04T11:30:30.734Z,77.9
2018-10-04T11:31:20.806Z,77.9
2018-10-04T11:32:10.591Z,77.8
2018-10-04T11:33:01.900Z,77.7
2018-10-04T11:33:51.264Z,77.6
2018-10-04T11:34:40.784Z,77.5
2018-10-04T11:35:31.381Z,77.5
2018-10-04T11:36:21.498Z,77.4
2018-10-04T11:37:11.756Z,77.4
2018-10-04T11:38:01.613Z,77.4
2018-10-04T11:38:51.070Z,77.4
2018-10-04T11:39:42.001Z,77.4
2018-10-04T11:40:31.225Z,77.4
2018-10-04T11:41:22.116Z,77.5
2018-10-04T11:42:11.865Z,77.5
2018-10-04T11:43:01.983Z,77.5
2018-10-04T11:43:51.458Z,77.5
2018-10-04T11:44:41.827Z,77.5
2018-10-04T11:45:30.738Z,77.5
2018-10-04T11:46:22.205Z,77.5
2018-10-04T11:47:12.277Z,77.4
2018-10-04T11:48:02.642Z,77.4
2018-10-04T11:48:51.001Z,77.5
2018-10-04T11:49:42.468Z,77.5
2018-10-04T11:50:32.270Z,77.5
2018-10-04T11:51:22.037Z,77.6
2018-10-04T11:52:12.651Z,77.5
2018-10-04T11:53:01.846Z,77.6
2018-10-04T11:53:52.772Z,77.6
2018-10-04T11:54:44.096Z,77.5
2018-10-04T11:55:32.413Z,77.5
2018-10-04T11:56:22.128Z,77.4
2018-10-04T11:57:12.770Z,77.4
2018-10-04T11:58:02.825Z,77.4
2018-10-04T11:58:53.135Z,77.4
2018-10-04T11:59:42.893Z,77.3
2018-10-04T12:00:32.697Z,77.3